Time;durP1;ratioP1;P1;durP2;ratioP2;P2;SDS_P1;SDS_P2;PMS_P1;PMS_P2;Temp;Humidity;BMP_temperature;BMP_pressure;BME280_temperature;BME280_humidity;BME280_pressure;Samples;Min_cycle;Max_cycle;Signal;HPM_P1;HPM_P2
2022/08/26 00:01:28;;;;;;;;;;;;;;;24.71;66.13;101075.16;5043887;28;2210;-59
2022/08/26 00:03:55;;;;;;;;;;;;;;;24.70;66.08;101076.56;5042713;28;3243;-59
2022/08/26 00:06:21;;;;;;;;;;;;;;;24.69;66.12;101077.97;5051190;28;2325;-58
2022/08/26 00:08:48;;;;;;;;;;;;;;;24.69;66.27;101086.66;5057426;28;2353;-58
2022/08/26 00:11:14;;;;;;;;;;;;;;;24.69;66.21;101065.66;5053533;28;2821;-58
2022/08/26 00:13:52;;;;;;;;;;;;;;;24.68;66.36;101073.63;5055673;28;2407;-58
2022/08/26 00:16:18;;;;;;;;;;;;;;;24.69;66.16;101074.34;5054767;28;2433;-58
2022/08/26 00:18:45;;;;;;;;;;;;;;;24.69;66.43;101072.19;5055504;28;2301;-58
2022/08/26 00:21:11;;;;;;;;;;;;;;;24.69;66.11;101062.75;5055188;28;2354;-59
2022/08/26 00:23:38;;;;;;;;;;;;;;;24.66;66.30;101064.84;5055684;28;3143;-58
2022/08/26 00:26:05;;;;;;;;;;;;;;;24.67;66.39;101066.34;5045420;28;2598;-58
2022/08/26 00:28:33;;;;;;;;;;;;;;;24.66;66.29;101065.59;5056985;28;2298;-58
2022/08/26 00:30:59;;;;;;;;;;;;;;;24.64;66.43;101056.84;5056212;28;2223;-59
2022/08/26 00:33:26;;;;;;;;;;;;;;;24.65;66.30;101058.34;5052649;28;2657;-58
2022/08/26 00:35:52;;;;;;;;;;;;;;;24.62;66.39;101062.59;5050111;28;2412;-59
2022/08/26 00:38:20;;;;;;;;;;;;;;;24.59;66.54;101055.22;5051117;28;2432;-58
2022/08/26 00:40:50;;;;;;;;;;;;;;;24.61;66.42;101058.19;5052877;28;2220;-58
2022/08/26 00:43:16;;;;;;;;;;;;;;;24.61;66.62;101052.41;5052236;28;2363;-58
2022/08/26 00:45:53;;;;;;;;;;;;;;;24.58;66.57;101059.56;5050963;28;2442;-58
2022/08/26 00:48:20;;;;;;;;;;;;;;;24.58;66.53;101059.56;5054729;28;2371;-58
2022/08/26 00:50:49;;;;;;;;;;;;;;;24.58;66.55;101053.75;5053108;28;3180;-58
2022/08/26 00:53:21;;;;;;;;;;;;;;;24.57;66.58;101052.28;5055207;28;2352;-58
2022/08/26 00:55:56;;;;;;;;;;;;;;;24.58;66.63;101053.00;5054583;28;2362;-59
2022/08/26 00:58:23;;;;;;;;;;;;;;;24.57;66.76;101052.28;5056366;28;3236;-58
2022/08/26 01:00:50;;;;;;;;;;;;;;;24.56;66.44;101050.81;5055835;28;2385;-59
2022/08/26 01:03:18;;;;;;;;;;;;;;;24.55;66.78;101043.53;5055041;28;2416;-58
2022/08/26 01:05:45;;;;;;;;;;;;;;;24.55;66.61;101043.53;5051725;28;2734;-58
2022/08/26 01:08:12;;;;;;;;;;;;;;;24.54;66.79;101047.84;5053610;28;2401;-58
2022/08/26 01:10:38;;;;;;;;;;;;;;;24.53;66.51;101045.59;5054505;28;2576;-58
2022/08/26 01:13:08;;;;;;;;;;;;;;;24.53;66.47;101040.56;5055559;28;2387;-58
2022/08/26 01:15:36;;;;;;;;;;;;;;;24.52;66.58;101050.66;5050035;28;2405;-58
2022/08/26 01:18:03;;;;;;;;;;;;;;;24.52;66.51;101050.66;5052363;28;3225;-59
2022/08/26 01:20:30;;;;;;;;;;;;;;;24.53;66.48;101046.34;5055896;28;2212;-59
2022/08/26 01:22:57;;;;;;;;;;;;;;;24.51;66.31;101048.44;5051182;28;2533;-59
2022/08/26 01:25:27;;;;;;;;;;;;;;;24.50;66.50;101050.59;5056698;28;2353;-58
2022/08/26 01:27:54;;;;;;;;;;;;;;;24.50;66.08;101047.69;5050192;28;2423;-58
2022/08/26 01:30:23;;;;;;;;;;;;;;;24.50;66.16;101053.50;5056723;28;2950;-58
2022/08/26 01:32:49;;;;;;;;;;;;;;;24.47;66.36;101049.06;5049378;28;2374;-59
2022/08/26 01:35:17;;;;;;;;;;;;;;;24.48;66.05;101047.63;5044452;28;2284;-58
2022/08/26 01:37:43;;;;;;;;;;;;;;;24.48;66.04;101044.75;5044959;28;2424;-58
2022/08/26 01:40:12;;;;;;;;;;;;;;;24.47;66.37;101043.28;5043543;28;2350;-58
2022/08/26 01:42:39;;;;;;;;;;;;;;;24.46;66.30;101041.75;5041430;28;2302;-58
2022/08/26 01:45:07;;;;;;;;;;;;;;;24.45;66.25;101046.06;5044261;28;2353;-57
2022/08/26 01:47:34;;;;;;;;;;;;;;;24.45;66.31;101040.28;5043809;28;2330;-59
2022/08/26 01:50:01;;;;;;;;;;;;;;;24.46;66.34;101035.97;5037638;28;3126;-58
2022/08/26 01:52:28;;;;;;;;;;;;;;;24.44;66.46;101027.97;5044162;28;2556;-58
2022/08/26 01:54:55;;;;;;;;;;;;;;;24.44;66.24;101030.88;5042057;28;2294;-58
2022/08/26 01:57:21;;;;;;;;;;;;;;;24.45;66.33;101029.44;5039963;28;2389;-59
2022/08/26 01:59:49;;;;;;;;;;;;;;;24.46;66.11;101024.38;5041946;28;2314;-57
2022/08/26 02:02:15;;;;;;;;;;;;;;;24.45;66.15;101028.69;5043987;28;2496;-59
2022/08/26 02:04:44;;;;;;;;;;;;;;;24.44;66.32;101021.41;5040026;28;2343;-58
2022/08/26 02:07:10;;;;;;;;;;;;;;;24.42;66.16;101022.09;5043904;28;2407;-58
2022/08/26 02:09:38;;;;;;;;;;;;;;;24.44;66.11;101033.75;5041611;28;2210;-58
2022/08/26 02:12:06;;;;;;;;;;;;;;;24.44;66.27;101025.06;5041266;28;2385;-59
2022/08/26 02:14:36;;;;;;;;;;;;;;;24.43;66.50;101029.38;5043364;28;2428;-58
2022/08/26 02:17:09;;;;;;;;;;;;;;;24.42;66.32;101021.38;5039612;28;3196;-57
2022/08/26 02:19:36;;;;;;;;;;;;;;;24.39;66.47;101016.91;5043201;28;2382;-58
2022/08/26 02:22:03;;;;;;;;;;;;;;;24.42;66.36;101018.47;5044887;28;2406;-58
2022/08/26 02:24:44;;;;;;;;;;;;;;;24.41;66.42;101028.56;5041617;28;2365;-58
2022/08/26 02:27:10;;;;;;;;;;;;;;;24.40;66.43;101021.31;5044206;28;2310;-58
2022/08/26 02:29:37;;;;;;;;;;;;;;;24.41;66.39;101017.00;5044640;28;2389;-58
2022/08/26 02:32:05;;;;;;;;;;;;;;;24.39;66.63;101023.44;5041636;28;2344;-58
2022/08/26 02:34:32;;;;;;;;;;;;;;;24.39;66.42;101019.81;5036028;28;2563;-58
2022/08/26 02:36:59;;;;;;;;;;;;;;;24.38;66.49;101021.97;5035731;28;2436;-58
2022/08/26 02:39:28;;;;;;;;;;;;;;;24.38;66.44;101018.34;5044887;28;2425;-59
2022/08/26 02:41:54;;;;;;;;;;;;;;;24.39;66.32;101019.81;5041763;28;2353;-58
2022/08/26 02:44:21;;;;;;;;;;;;;;;24.38;66.57;101012.56;5040043;28;2397;-58
2022/08/26 02:46:47;;;;;;;;;;;;;;;24.38;66.26;101024.88;5037904;28;2393;-58
2022/08/26 02:49:15;;;;;;;;;;;;;;;24.37;66.54;101019.75;5037475;28;2359;-58
2022/08/26 02:51:42;;;;;;;;;;;;;;;24.38;66.26;101012.56;5046517;28;2356;-61
2022/08/26 02:54:08;;;;;;;;;;;;;;;24.38;66.39;101015.44;5040095;28;2527;-58
2022/08/26 02:56:35;;;;;;;;;;;;;;;24.37;66.49;101013.97;5036145;28;3162;-58
2022/08/26 02:59:01;;;;;;;;;;;;;;;24.36;66.52;101015.38;5041025;28;2496;-57
2022/08/26 03:01:31;;;;;;;;;;;;;;;24.34;66.66;101012.41;5034988;28;2503;-58
2022/08/26 03:03:57;;;;;;;;;;;;;;;24.35;66.69;101017.53;5041713;28;2358;-58
2022/08/26 03:06:24;;;;;;;;;;;;;;;24.34;66.58;101013.16;5036801;28;2298;-58
2022/08/26 03:08:50;;;;;;;;;;;;;;;24.33;66.62;101016.75;5044363;28;2443;-58
2022/08/26 03:11:17;;;;;;;;;;;;;;;24.35;66.64;101008.09;5042439;28;2477;-57
2022/08/26 03:13:43;;;;;;;;;;;;;;;24.34;66.54;101018.22;5043750;28;2326;-59
2022/08/26 03:16:10;;;;;;;;;;;;;;;24.33;66.48;101005.16;5046657;28;2360;-58
2022/08/26 03:18:37;;;;;;;;;;;;;;;24.33;66.62;101005.16;5045590;28;2341;-58
2022/08/26 03:21:08;;;;;;;;;;;;;;;24.34;66.73;101003.75;5044340;28;2413;-58
2022/08/26 03:23:34;;;;;;;;;;;;;;;24.31;66.72;101002.19;5045641;28;2342;-58
2022/08/26 03:26:00;;;;;;;;;;;;;;;24.29;66.61;100999.97;5044786;28;2397;-58
2022/08/26 03:28:27;;;;;;;;;;;;;;;24.32;66.68;101000.78;5048322;28;2437;-58
2022/08/26 03:30:53;;;;;;;;;;;;;;;24.33;66.16;101005.16;5058923;28;2361;-58
2022/08/26 03:33:21;;;;;;;;;;;;;;;24.33;66.37;100997.22;5054567;28;2432;-58
2022/08/26 03:35:47;;;;;;;;;;;;;;;24.33;66.62;101002.28;5055858;28;2356;-57
2022/08/26 03:38:16;;;;;;;;;;;;;;;24.31;66.63;100996.41;5051153;28;2736;-57
2022/08/26 03:40:42;;;;;;;;;;;;;;;24.30;66.60;100994.91;5052053;28;3327;-57
2022/08/26 03:43:08;;;;;;;;;;;;;;;24.32;66.40;100997.88;5053146;28;2394;-58
2022/08/26 03:45:35;;;;;;;;;;;;;;;24.29;66.72;100999.97;5041670;28;2417;-58
2022/08/26 03:48:02;;;;;;;;;;;;;;;24.29;66.68;100993.44;5053651;28;2713;-58
2022/08/26 03:50:28;;;;;;;;;;;;;;;24.31;66.49;100990.63;5040061;28;2745;-58
2022/08/26 03:52:59;;;;;;;;;;;;;;;24.29;66.45;100987.66;5047248;28;2294;-57
2022/08/26 03:55:26;;;;;;;;;;;;;;;24.31;66.54;100984.84;5042032;28;2286;-59
2022/08/26 03:57:52;;;;;;;;;;;;;;;24.28;66.27;100991.97;5044888;28;2411;-57
2022/08/26 04:00:20;;;;;;;;;;;;;;;24.29;66.39;100990.56;5042755;28;2281;-58
2022/08/26 04:02:47;;;;;;;;;;;;;;;24.29;66.45;100981.88;5043972;28;2595;-58
2022/08/26 04:05:14;;;;;;;;;;;;;;;24.28;66.66;100981.16;5040911;28;2188;-57
2022/08/26 04:07:41;;;;;;;;;;;;;;;24.28;66.40;100986.16;5045456;28;2378;-58
2022/08/26 04:10:09;;;;;;;;;;;;;;;24.25;66.74;100983.22;5042128;28;2428;-58
2022/08/26 04:12:36;;;;;;;;;;;;;;;24.25;66.58;100977.41;5041795;28;2342;-58
2022/08/26 04:15:03;;;;;;;;;;;;;;;24.27;66.41;100987.59;5046243;28;2433;-57
2022/08/26 04:17:30;;;;;;;;;;;;;;;24.25;66.68;100970.91;5041681;28;3141;-57
2022/08/26 04:19:57;;;;;;;;;;;;;;;24.23;66.39;100986.06;5044654;28;2766;-58
2022/08/26 04:22:24;;;;;;;;;;;;;;;24.24;66.52;100975.22;5044764;28;2481;-57
2022/08/26 04:24:50;;;;;;;;;;;;;;;24.23;66.62;100980.28;5046575;28;2766;-58
2022/08/26 04:27:17;;;;;;;;;;;;;;;24.24;66.53;100972.31;5045917;28;2410;-58
2022/08/26 04:29:45;;;;;;;;;;;;;;;24.23;66.27;100968.69;5046573;28;3178;-58
2022/08/26 04:32:13;;;;;;;;;;;;;;;24.19;66.60;100967.81;5049396;28;2748;-58
2022/08/26 04:34:39;;;;;;;;;;;;;;;24.18;66.50;100972.84;5051538;28;2364;-58
2022/08/26 04:37:05;;;;;;;;;;;;;;;24.20;66.62;100970.03;5052992;28;2760;-59
2022/08/26 04:39:32;;;;;;;;;;;;;;;24.18;66.59;100967.06;5052025;28;2532;-58
2022/08/26 04:41:58;;;;;;;;;;;;;;;24.17;66.68;100974.28;5049372;28;2659;-57
2022/08/26 04:44:27;;;;;;;;;;;;;;;24.19;66.66;100974.34;5049479;28;2321;-58
2022/08/26 04:46:53;;;;;;;;;;;;;;;24.22;66.43;100972.25;5049906;28;2357;-58
2022/08/26 04:49:20;;;;;;;;;;;;;;;24.21;66.76;100976.56;5053064;28;2113;-58
2022/08/26 04:51:47;;;;;;;;;;;;;;;24.20;66.71;100970.03;5048140;28;2763;-58
2022/08/26 04:54:14;;;;;;;;;;;;;;;24.17;67.01;100974.28;5045776;28;2760;-57
2022/08/26 04:57:07;;;;;;;;;;;;;;;24.25;66.89;100983.22;5055271;28;3232;-60
2022/08/26 04:59:33;;;;;;;;;;;;;;;24.23;67.19;100983.16;5056198;28;2789;-59
2022/08/26 05:02:05;;;;;;;;;;;;;;;24.16;67.36;100983.63;5049662;28;2732;-59
2022/08/26 05:04:32;;;;;;;;;;;;;;;24.16;67.41;100986.53;5058141;28;1854;-59
2022/08/26 05:06:59;;;;;;;;;;;;;;;24.12;67.77;100989.28;5058635;28;2943;-59
2022/08/26 05:09:28;;;;;;;;;;;;;;;24.10;68.13;100992.84;5053496;28;2768;-59
2022/08/26 05:11:55;;;;;;;;;;;;;;;24.09;68.40;100994.25;5056626;28;2588;-59
2022/08/26 05:14:22;;;;;;;;;;;;;;;24.11;67.96;100993.59;5058649;28;2610;-58
2022/08/26 05:16:48;;;;;;;;;;;;;;;24.12;68.45;100987.16;5053197;28;2991;-58
2022/08/26 05:19:15;;;;;;;;;;;;;;;24.18;68.39;100984.44;5052857;28;3030;-60
2022/08/26 05:21:44;;;;;;;;;;;;;;;23.92;70.51;100995.13;5051756;28;2776;-59
2022/08/26 05:24:12;;;;;;;;;;;;;;;23.90;74.06;100995.06;5050441;28;3378;-60
2022/08/26 05:26:38;;;;;;;;;;;;;;;24.00;72.37;101001.19;5054680;28;2718;-59
2022/08/26 05:29:05;;;;;;;;;;;;;;;24.04;73.24;100992.66;5055794;28;2849;-60
2022/08/26 05:31:32;;;;;;;;;;;;;;;24.00;72.58;100992.50;5051141;28;2799;-58
2022/08/26 05:33:59;;;;;;;;;;;;;;;24.03;72.73;100994.81;5054789;28;3013;-63
2022/08/26 05:36:29;;;;;;;;;;;;;;;24.11;73.11;100997.22;5055270;28;2948;-63
2022/08/26 05:38:56;;;;;;;;;;;;;;;23.94;73.05;100995.94;5058375;28;2832;-66
2022/08/26 05:41:26;;;;;;;;;;;;;;;23.72;74.21;100998.78;5052559;28;2803;-56
2022/08/26 05:44:00;;;;;;;;;;;;;;;24.05;74.93;100988.31;5057538;28;2899;-61
2022/08/26 05:46:26;;;;;;;;;;;;;;;24.14;74.32;100990.06;5052095;28;2839;-63
2022/08/26 05:48:53;;;;;;;;;;;;;;;24.18;73.91;100992.38;5056547;28;3061;-63
2022/08/26 05:51:20;;;;;;;;;;;;;;;24.29;73.36;100993.44;5056012;28;2788;-62
2022/08/26 05:53:51;;;;;;;;;;;;;;;24.34;73.81;100990.00;5054947;28;2832;-62
2022/08/26 05:56:23;;;;;;;;;;;;;;;24.37;73.77;100999.50;5047987;28;2930;-63
2022/08/26 05:58:49;;;;;;;;;;;;;;;24.40;73.74;100995.25;5054499;28;2760;-60
2022/08/26 06:01:18;;;;;;;;;;;;;;;24.40;73.43;100993.09;5053484;28;2911;-63
2022/08/26 06:03:47;;;;;;;;;;;;;;;24.37;73.75;100999.50;5054871;28;3110;-58
2022/08/26 06:06:15;;;;;;;;;;;;;;;24.41;73.63;100994.56;5053756;28;2799;-58
2022/08/26 06:08:45;;;;;;;;;;;;;;;24.45;73.52;100999.75;5055389;28;2838;-58
2022/08/26 06:11:13;;;;;;;;;;;;;;;24.39;73.91;100996.66;5050374;28;3391;-61
2022/08/26 06:13:44;;;;;;;;;;;;;;;24.40;74.11;101001.06;5054477;28;2768;-59
2022/08/26 06:16:11;;;;;;;;;;;;;;;24.19;74.40;100997.50;5052701;28;2776;-60
2022/08/26 06:18:38;;;;;;;;;;;;;;;24.12;74.36;100998.72;5054732;28;2848;-60
2022/08/26 06:21:21;;;;;;;;;;;;;;;24.10;74.80;101004.44;5051805;28;2831;-58
2022/08/26 06:26:34;;;;;;;;;;;;;;;23.95;75.55;100997.41;5048751;28;2898;-60
2022/08/26 06:29:02;;;;;;;;;;;;;;;24.01;75.40;101006.31;5050127;28;2973;-57
2022/08/26 06:31:30;;;;;;;;;;;;;;;24.17;74.47;101002.47;5054442;28;2783;-60
2022/08/26 06:34:01;;;;;;;;;;;;;;;24.22;74.32;100993.25;5052313;28;2879;-56
2022/08/26 06:36:39;;;;;;;;;;;;;;;24.28;73.87;100994.84;5049727;28;2874;-58
2022/08/26 06:39:10;;;;;;;;;;;;;;;24.29;73.76;100993.44;5055918;28;3787;-60
2022/08/26 06:41:37;;;;;;;;;;;;;;;24.27;73.80;100994.13;5048905;28;2799;-60
2022/08/26 06:44:13;;;;;;;;;;;;;;;24.27;74.13;100990.50;5052008;28;2863;-58
2022/08/26 06:46:39;;;;;;;;;;;;;;;24.27;73.91;100999.16;5050848;28;2850;-58
2022/08/26 06:49:06;;;;;;;;;;;;;;;24.28;73.80;100997.75;5052871;28;2569;-58
2022/08/26 06:51:34;;;;;;;;;;;;;;;24.30;73.48;101000.72;5051843;28;2714;-58
2022/08/26 06:54:00;;;;;;;;;;;;;;;24.31;73.42;100997.16;5055273;28;2585;-59
2022/08/26 06:56:27;;;;;;;;;;;;;;;24.32;72.98;100992.09;5056372;28;2312;-58
2022/08/26 06:58:54;;;;;;;;;;;;;;;24.34;72.65;100989.25;5055004;28;1885;-59
2022/08/26 07:01:24;;;;;;;;;;;;;;;24.37;72.38;100994.47;5057301;28;1642;-59
2022/08/26 07:03:52;;;;;;;;;;;;;;;24.38;71.78;100987.25;5055853;28;2573;-59
2022/08/26 07:06:22;;;;;;;;;;;;;;;24.39;71.54;100990.88;5053631;28;2651;-56
2022/08/26 07:08:49;;;;;;;;;;;;;;;24.41;71.26;100993.84;5052971;28;2985;-58
2022/08/26 07:11:15;;;;;;;;;;;;;;;24.40;71.02;100975.00;5052052;28;2620;-58
2022/08/26 07:13:42;;;;;;;;;;;;;;;24.41;70.56;100971.41;5055757;28;1658;-58
2022/08/26 07:16:11;;;;;;;;;;;;;;;24.41;70.55;100977.19;5056689;28;1881;-58
2022/08/26 07:18:39;;;;;;;;;;;;;;;24.42;70.42;100977.97;5056429;28;2515;-58
2022/08/26 07:21:07;;;;;;;;;;;;;;;24.42;70.32;100977.97;5057552;28;2538;-57
2022/08/26 07:23:33;;;;;;;;;;;;;;;24.43;70.24;100976.53;5056519;28;1884;-58
2022/08/26 07:26:06;;;;;;;;;;;;;;;24.42;70.08;100972.91;5056111;28;2564;-58
2022/08/26 07:28:33;;;;;;;;;;;;;;;24.43;70.22;100973.63;5054915;28;2499;-59
2022/08/26 07:31:06;;;;;;;;;;;;;;;24.42;69.92;100966.38;5048286;28;2649;-58
2022/08/26 07:33:35;;;;;;;;;;;;;;;24.43;69.77;100962.06;5051655;28;2879;-58
2022/08/26 07:36:01;;;;;;;;;;;;;;;24.44;69.63;100966.41;5054062;28;1814;-57
2022/08/26 07:38:29;;;;;;;;;;;;;;;24.44;69.73;100969.31;5054965;28;2715;-58
2022/08/26 07:40:59;;;;;;;;;;;;;;;24.44;69.73;100969.31;5055630;28;2738;-58
2022/08/26 07:43:25;;;;;;;;;;;;;;;24.44;69.69;100960.63;5053252;28;2675;-58
2022/08/26 07:45:54;;;;;;;;;;;;;;;24.44;69.30;100963.53;5055547;28;2668;-59
2022/08/26 07:48:21;;;;;;;;;;;;;;;24.43;69.46;100967.84;5055931;28;2431;-57
2022/08/26 07:50:47;;;;;;;;;;;;;;;24.43;69.37;100968.59;5055306;28;2499;-58
2022/08/26 07:53:16;;;;;;;;;;;;;;;24.44;69.30;100963.53;5055794;28;2585;-58
2022/08/26 07:55:44;;;;;;;;;;;;;;;24.44;69.19;100960.63;5056869;28;2606;-58
2022/08/26 07:58:11;;;;;;;;;;;;;;;24.44;69.04;100966.41;5059830;28;2463;-57
2022/08/26 08:00:37;;;;;;;;;;;;;;;24.44;69.17;100963.53;5058908;28;2868;-58
2022/08/26 08:03:04;;;;;;;;;;;;;;;24.44;69.03;100964.28;5060463;28;2607;-58
2022/08/26 08:05:31;;;;;;;;;;;;;;;24.45;69.05;100970.81;5058158;28;2675;-58
2022/08/26 08:07:59;;;;;;;;;;;;;;;24.45;68.82;100962.13;5060014;28;2648;-58
2022/08/26 08:10:46;;;;;;;;;;;;;;;24.45;68.91;100965.75;5055178;28;3107;-58
2022/08/26 08:13:14;;;;;;;;;;;;;;;24.45;69.00;100965.75;5050509;28;2910;-59
2022/08/26 08:15:40;;;;;;;;;;;;;;;24.51;68.50;100967.38;5055905;28;2760;-59
2022/08/26 08:18:07;;;;;;;;;;;;;;;24.53;68.58;100965.28;5053814;28;2959;-60
2022/08/26 08:20:41;;;;;;;;;;;;;;;24.74;68.96;100960.13;5054107;28;2876;-48
2022/08/26 08:23:13;;;;;;;;;;;;;;;24.81;68.54;100950.22;5058820;28;2747;-52
2022/08/26 08:25:40;;;;;;;;;;;;;;;24.85;68.38;100956.88;5058293;28;2887;-54
2022/08/26 08:28:06;;;;;;;;;;;;;;;24.91;67.99;100956.28;5056993;28;2275;-57
2022/08/26 08:30:36;;;;;;;;;;;;;;;24.97;67.60;100947.03;5050548;28;2908;-58
2022/08/26 08:33:03;;;;;;;;;;;;;;;24.96;67.50;100946.28;5054143;28;2811;-58
2022/08/26 08:35:31;;;;;;;;;;;;;;;24.98;67.41;100949.25;5054294;28;2230;-58
2022/08/26 08:37:57;;;;;;;;;;;;;;;25.55;66.11;100940.69;5055441;28;2413;-57
2022/08/26 08:40:24;;;;;;;;;;;;;;;25.73;65.33;100941.16;5052622;28;2827;-50
2022/08/26 08:43:08;;;;;;;;;;;;;;;25.87;65.17;100932.81;5048507;28;2439;-58
2022/08/26 08:45:35;;;;;;;;;;;;;;;25.83;65.63;100944.28;5052783;28;3031;-59
2022/08/26 08:48:11;;;;;;;;;;;;;;;25.60;65.85;100939.34;5046987;28;2642;-60
2022/08/26 08:50:42;;;;;;;;;;;;;;;26.06;64.65;100925.28;5048132;28;3553;-61
2022/08/26 08:53:08;;;;;;;;;;;;;;;25.88;64.69;100927.75;5051422;28;2398;-60
2022/08/26 08:55:38;;;;;;;;;;;;;;;25.87;64.91;100932.81;5046972;28;2440;-65
2022/08/26 08:58:05;;;;;;;;;;;;;;;25.83;65.03;100926.88;5047259;28;2743;-59
2022/08/26 09:00:38;;;;;;;;;;;;;;;25.83;64.92;100926.16;5055201;28;2131;-59
2022/08/26 09:03:08;;;;;;;;;;;;;;;25.92;65.18;100927.84;5048572;28;2807;-62
2022/08/26 09:05:38;;;;;;;;;;;;;;;26.29;63.90;100923.66;5054847;28;2727;-59
2022/08/26 09:08:07;;;;;;;;;;;;;;;26.00;64.41;100924.41;5051485;28;2989;-66
2022/08/26 09:10:37;;;;;;;;;;;;;;;26.00;64.27;100930.97;5051997;28;2381;-51
2022/08/26 09:13:05;;;;;;;;;;;;;;;26.06;64.01;100930.34;5052305;28;3012;-58
2022/08/26 09:15:51;;;;;;;;;;;;;;;25.81;64.63;100918.13;5050328;28;2590;-63
2022/08/26 09:18:23;;;;;;;;;;;;;;;25.50;65.69;100931.88;5054947;28;2599;-61
2022/08/26 09:20:56;;;;;;;;;;;;;;;25.39;66.34;100927.22;5049474;28;2857;-60
2022/08/26 09:23:23;;;;;;;;;;;;;;;25.30;66.73;100931.31;5050391;28;2410;-60
2022/08/26 09:25:54;;;;;;;;;;;;;;;25.21;66.90;100921.66;5035936;28;2439;-60
2022/08/26 09:28:21;;;;;;;;;;;;;;;25.16;67.12;100930.91;5045314;28;2377;-60
2022/08/26 09:31:08;;;;;;;;;;;;;;;25.13;67.20;100923.56;5042990;28;2509;-58
2022/08/26 09:33:36;;;;;;;;;;;;;;;25.11;67.28;100911.94;5044846;28;2357;-58
2022/08/26 09:36:14;;;;;;;;;;;;;;;25.11;67.07;100921.38;5043624;28;2449;-56
2022/08/26 09:38:40;;;;;;;;;;;;;;;25.09;67.01;100913.34;5041480;28;2401;-57
2022/08/26 09:41:18;;;;;;;;;;;;;;;25.07;67.25;100904.59;5043227;28;2486;-58
2022/08/26 09:43:59;;;;;;;;;;;;;;;25.06;67.37;100905.31;5045133;28;2534;-59
2022/08/26 09:46:26;;;;;;;;;;;;;;;25.03;67.31;100900.84;5046825;28;2450;-59
2022/08/26 09:48:52;;;;;;;;;;;;;;;25.02;67.46;100900.13;5042716;28;2355;-59
2022/08/26 09:51:25;;;;;;;;;;;;;;;25.01;67.15;100892.84;5047083;28;2295;-59
2022/08/26 09:53:53;;;;;;;;;;;;;;;24.99;67.37;100884.13;5040816;28;2593;-59
2022/08/26 09:56:22;;;;;;;;;;;;;;;24.99;67.28;100884.13;5046866;28;2412;-59
2022/08/26 09:58:50;;;;;;;;;;;;;;;24.98;67.32;100876.81;5043582;28;2451;-59
2022/08/26 10:01:24;;;;;;;;;;;;;;;24.99;67.18;100874.66;5041714;28;2808;-58
2022/08/26 10:03:51;;;;;;;;;;;;;;;25.34;66.69;100876.38;5056230;28;2723;-51
2022/08/26 10:06:21;;;;;;;;;;;;;;;25.53;65.80;100860.16;5053700;28;2433;-50
2022/08/26 10:08:51;;;;;;;;;;;;;;;25.68;65.74;100855.47;5049207;28;3203;-58
2022/08/26 10:11:29;;;;;;;;;;;;;;;25.76;65.08;100846.94;5050034;28;2823;-62
2022/08/26 10:13:57;;;;;;;;;;;;;;;25.82;65.19;100844.19;5049242;28;2926;-63
2022/08/26 10:16:44;;;;;;;;;;;;;;;26.00;64.56;100834.47;5057493;28;2282;-63
2022/08/26 10:19:11;;;;;;;;;;;;;;;26.07;64.00;100824.50;5051598;28;2678;-61
2022/08/26 10:21:43;;;;;;;;;;;;;;;26.05;63.98;100836.03;5050773;28;2519;-61
2022/08/26 10:24:10;;;;;;;;;;;;;;;26.29;63.75;100842.38;5056798;28;2251;-60
2022/08/26 10:26:43;;;;;;;;;;;;;;;26.71;62.20;100847.63;5052651;28;2740;-60
2022/08/26 10:29:20;;;;;;;;;;;;;;;26.41;62.77;100832.44;5053546;28;2561;-58
2022/08/26 10:31:54;;;;;;;;;;;;;;;26.24;63.02;100829.19;5053179;28;2645;-58
2022/08/26 10:34:28;;;;;;;;;;;;;;;26.20;63.44;100829.09;5051619;28;2830;-61
2022/08/26 10:37:07;;;;;;;;;;;;;;;26.10;63.55;100815.13;5054474;28;2593;-56
2022/08/26 10:39:55;;;;;;;;;;;;;;;25.98;64.01;100817.03;5058451;28;2632;-59
2022/08/26 10:42:29;;;;;;;;;;;;;;;25.99;64.40;100798.19;5054110;28;2717;-54
2022/08/26 10:44:55;;;;;;;;;;;;;;;26.02;64.05;100788.09;5051093;28;2787;-61
2022/08/26 10:47:26;;;;;;;;;;;;;;;26.05;63.96;100798.31;5056607;28;2757;-62
2022/08/26 10:49:52;;;;;;;;;;;;;;;26.08;63.74;100796.94;5053659;28;1784;-61
2022/08/26 10:52:26;;;;;;;;;;;;;;;25.96;64.02;100800.31;5057017;28;2805;-62
2022/08/26 10:55:03;;;;;;;;;;;;;;;25.92;65.08;100798.03;5056459;28;2767;-61
2022/08/26 10:57:48;;;;;;;;;;;;;;;26.22;63.87;100796.50;5054924;28;3065;-64
2022/08/26 11:03:23;;;;;;;;;;;;;;;26.44;62.73;100807.84;5055975;28;2894;-66
2022/08/26 11:06:09;;;;;;;;;;;;;;;26.45;62.64;100812.22;5048277;28;2839;-63
2022/08/26 11:08:36;;;;;;;;;;;;;;;26.52;63.02;100819.59;5056358;28;2823;-61
2022/08/26 11:11:04;;;;;;;;;;;;;;;26.81;61.92;100823.84;5055630;28;3113;-62
2022/08/26 11:13:49;;;;;;;;;;;;;;;26.59;62.63;100820.50;5051800;28;2859;-57
2022/08/26 11:16:30;;;;;;;;;;;;;;;26.40;63.33;100823.00;5054660;28;2600;-60
2022/08/26 11:18:56;;;;;;;;;;;;;;;26.25;63.92;100813.28;5055341;28;2701;-58
2022/08/26 11:21:43;;;;;;;;;;;;;;;26.19;64.05;100809.50;5055477;28;2887;-61
2022/08/26 11:24:30;;;;;;;;;;;;;;;26.24;64.04;100811.06;5057400;28;1735;-57
2022/08/26 11:26:56;;;;;;;;;;;;;;;26.30;64.14;100814.81;5053334;28;3091;-55
2022/08/26 11:29:52;;;;;;;;;;;;;;;26.11;64.93;100824.56;5058360;28;2553;-57
2022/08/26 11:32:23;;;;;;;;;;;;;;;26.24;64.83;100819.75;5059187;28;3400;-60
2022/08/26 11:34:58;;;;;;;;;;;;;;;26.33;64.54;100816.34;5057241;28;2776;-60
2022/08/26 11:37:28;;;;;;;;;;;;;;;26.21;64.56;100812.44;5056251;28;2553;-59
2022/08/26 11:39:57;;;;;;;;;;;;;;;26.09;65.72;100790.44;5064985;28;2953;-62
2022/08/26 11:42:35;;;;;;;;;;;;;;;26.20;64.90;100794.28;5059043;28;2845;-60
2022/08/26 11:45:10;;;;;;;;;;;;;;;26.24;64.78;100787.84;5058793;28;2883;-60
2022/08/26 11:47:36;;;;;;;;;;;;;;;25.97;64.93;100793.06;5061130;28;2699;-59
2022/08/26 11:50:07;;;;;;;;;;;;;;;25.91;65.45;100792.94;5057618;28;2696;-60
2022/08/26 11:52:33;;;;;;;;;;;;;;;25.84;65.47;100800.75;5055419;28;2593;-59
2022/08/26 11:55:04;;;;;;;;;;;;;;;25.91;65.60;100804.53;5053575;28;3455;-57
2022/08/26 11:57:31;;;;;;;;;;;;;;;25.73;66.19;100790.34;5060692;28;2802;-62
2022/08/26 11:59:58;;;;;;;;;;;;;;;25.94;65.75;100805.31;5056035;28;2682;-59
2022/08/26 12:02:24;;;;;;;;;;;;;;;25.88;65.91;100806.66;5058745;28;2695;-58
2022/08/26 12:04:51;;;;;;;;;;;;;;;25.99;65.77;100804.72;5055438;28;2599;-57
2022/08/26 12:07:23;;;;;;;;;;;;;;;26.03;65.43;100810.59;5057103;28;3311;-59
2022/08/26 12:09:55;;;;;;;;;;;;;;;25.83;66.46;100810.84;5051959;28;2999;-58
2022/08/26 12:12:29;;;;;;;;;;;;;;;25.93;66.20;100795.88;5054598;28;2996;-49
2022/08/26 12:15:18;;;;;;;;;;;;;;;25.83;67.08;100796.34;5055811;28;2851;-53
2022/08/26 12:17:46;;;;;;;;;;;;;;;25.85;67.29;100789.88;5056170;28;2947;-52
2022/08/26 12:20:29;;;;;;;;;;;;;;;25.82;67.44;100786.19;5057005;28;3074;-57
2022/08/26 12:22:57;;;;;;;;;;;;;;;25.66;67.77;100786.56;5052945;28;2737;-50
2022/08/26 12:25:24;;;;;;;;;;;;;;;25.69;67.77;100796.03;5056091;28;2588;-50
2022/08/26 12:27:51;;;;;;;;;;;;;;;25.98;67.15;100805.41;5053461;28;2880;-49
2022/08/26 12:30:22;;;;;;;;;;;;;;;26.04;66.30;100812.06;5057749;28;2858;-58
2022/08/26 12:32:50;;;;;;;;;;;;;;;25.71;67.88;100810.59;5058179;28;3147;-60
2022/08/26 12:35:23;;;;;;;;;;;;;;;25.61;68.70;100807.44;5056070;28;2979;-60
2022/08/26 12:37:50;;;;;;;;;;;;;;;25.46;69.35;100807.09;5052286;28;3027;-61
2022/08/26 12:40:23;;;;;;;;;;;;;;;25.65;68.74;100822.03;5051451;28;2867;-58
2022/08/26 12:42:50;;;;;;;;;;;;;;;25.64;69.01;100832.16;5058838;28;2669;-60
2022/08/26 12:45:33;;;;;;;;;;;;;;;25.68;68.82;100881.56;5056491;28;2892;-59
2022/08/26 12:48:06;;;;;;;;;;;;;;;25.72;68.78;100890.34;5057165;28;3394;-58
2022/08/26 12:50:33;;;;;;;;;;;;;;;25.78;68.82;100896.31;5049272;28;2854;-59
2022/08/26 12:53:09;;;;;;;;;;;;;;;25.72;68.18;100913.56;5050735;28;2801;-59
2022/08/26 12:55:37;;;;;;;;;;;;;;;25.40;69.34;100919.25;5056870;28;2884;-57
2022/08/26 12:58:09;;;;;;;;;;;;;;;25.69;68.25;100917.84;5052226;28;2926;-64
2022/08/26 13:00:36;;;;;;;;;;;;;;;25.62;68.31;100904.59;5055137;28;3287;-63
2022/08/26 13:03:02;;;;;;;;;;;;;;;25.63;68.49;100897.38;5055544;28;2804;-58
2022/08/26 13:05:34;;;;;;;;;;;;;;;25.67;68.93;100894.59;5035002;28;2917;-59